»·PEaware :: N213BK KSBP-KVGT

N213BK :: KSBP-KVGT

FLIGHT INFORMATION

Flight Status: Arrived
Operator: Privately registered:
United States
More flights under this callsign
Pilot: Bradford K. (23688)
Aircraft: BEECH AIRCRAFT PREMIER
(PRM1)
More flights by this aircraft type
Origin: KSBP San Luis Co Regl
United States
Destination: KVGT North Las Vegas
United States
More flights between these airports :: More routes between these airports
Route: +DERBB MARIC PMD DAG CLARR3
File this flight plan on PilotEdge
Remarks:
Altitude:
(Current/Filed)
33,000ft
Speed:
(Current/Filed)
300kts
Departed: 10-Nov-19 11:02 AM
Arrived: 10-Nov-19 12:38 PM
Distance/Time
Traveled:
272nm/1:36
Distance/Time
To Go:
Arrived

Flight Plot

Page will automatically refresh every two minutes.

Flight plan parsing failed; only flown route is shown


Map Options




Map Legend


Flown Route
Filed Route
Departure Airport
Arrival Airport
Navaid (VOR, NDB)
Fix

Horizontal Profiles

Position Reports

Time Latitude Longitude Heading Altitude Ground
Speed
10-Nov-19 10:38 35.237986 -120.636796 328 219ft 0kts
10-Nov-19 10:39 35.237989 -120.636798 328 219ft 0kts
10-Nov-19 10:40 35.237989 -120.636798 328 219ft 0kts
10-Nov-19 10:41 35.237989 -120.636798 328 219ft 0kts
10-Nov-19 10:42 35.237989 -120.636798 328 219ft 0kts
10-Nov-19 10:43 35.237989 -120.636798 328 219ft 0kts
10-Nov-19 10:44 35.237989 -120.636798 328 219ft 0kts
10-Nov-19 10:45 35.237989 -120.636798 328 219ft 0kts
10-Nov-19 10:46 35.237989 -120.636798 328 219ft 0kts
10-Nov-19 10:47 35.237989 -120.636798 328 219ft 0kts
10-Nov-19 10:48 35.237989 -120.636798 328 219ft 0kts
10-Nov-19 10:49 35.237989 -120.636798 328 219ft 0kts
10-Nov-19 10:50 35.237989 -120.636798 328 219ft 0kts
10-Nov-19 10:51 35.237989 -120.636798 328 219ft 0kts
10-Nov-19 10:52 35.237989 -120.636798 328 219ft 0kts
10-Nov-19 10:53 35.237989 -120.636798 328 219ft 0kts
10-Nov-19 10:54 35.237989 -120.636798 328 219ft 0kts
10-Nov-19 10:55 35.237989 -120.636798 328 219ft 0kts
10-Nov-19 10:56 35.238003 -120.636887 242 219ft 2kts
10-Nov-19 10:57 35.237987 -120.636917 235 219ft 0kts
10-Nov-19 10:58 35.237987 -120.636917 235 219ft 0kts
10-Nov-19 10:59 35.236259 -120.637211 124 219ft 13kts
10-Nov-19 11:00 35.234071 -120.633378 125 219ft 13kts
10-Nov-19 11:01 35.234027 -120.635175 303 219ft 71kts
10-Nov-19 11:02 35.258796 -120.678143 303 1208ft 171kts
10-Nov-19 11:03 35.282150 -120.723954 302 3172ft 147kts
10-Nov-19 11:04 35.304102 -120.768873 302 5197ft 161kts
10-Nov-19 11:05 35.327163 -120.817343 302 7214ft 168kts
10-Nov-19 11:06 35.352307 -120.870737 302 8007ft 204kts
10-Nov-19 11:07 35.378187 -120.932830 273 8042ft 211kts
10-Nov-19 11:08 35.337384 -120.968832 149 8103ft 227kts
10-Nov-19 11:09 35.291264 -120.920364 151 8916ft 195kts
10-Nov-19 11:10 35.264083 -120.877554 100 10979ft 157kts
10-Nov-19 11:11 35.252458 -120.827112 98 13018ft 156kts
10-Nov-19 11:12 35.239334 -120.767497 99 14197ft 205kts
10-Nov-19 11:13 35.213359 -120.699786 100 15375ft 233kts
10-Nov-19 11:14 35.196555 -120.625401 100 17246ft 217kts
10-Nov-19 11:15 35.173301 -120.561963 128 19217ft 202kts
10-Nov-19 11:16 35.135965 -120.516678 129 20833ft 189kts
10-Nov-19 11:17 35.097096 -120.469876 129 21879ft 204kts
10-Nov-19 11:18 35.055337 -120.419711 128 22918ft 216kts
10-Nov-19 11:19 35.011894 -120.367624 128 23946ft 223kts
10-Nov-19 11:20 34.967628 -120.314609 129 24969ft 225kts
10-Nov-19 11:21 34.923063 -120.261331 127 25993ft 223kts
10-Nov-19 11:22 34.879376 -120.209191 127 26982ft 218kts
10-Nov-19 11:23 34.837158 -120.159022 126 27927ft 207kts
10-Nov-19 11:24 34.793974 -120.107375 127 28359ft 223kts
10-Nov-19 11:25 34.751130 -120.056779 125 29285ft 207kts
10-Nov-19 11:26 34.708235 -120.005610 126 29652ft 221kts
10-Nov-19 11:27 34.664028 -119.953335 125 30242ft 221kts
10-Nov-19 11:28 34.620301 -119.901690 125 30819ft 219kts
10-Nov-19 11:29 34.577226 -119.850805 125 31384ft 214kts
10-Nov-19 11:30 34.534529 -119.800442 125 31805ft 215kts
10-Nov-19 11:31 34.513560 -119.741245 76 32070ft 185kts
10-Nov-19 11:32 34.516837 -119.680266 73 32510ft 181kts
10-Nov-19 11:33 34.521516 -119.617963 73 32771ft 187kts
10-Nov-19 11:34 34.526236 -119.556299 73 33072ft 189kts
10-Nov-19 11:35 34.531447 -119.489526 74 33208ft 202kts
10-Nov-19 11:36 34.536727 -119.419460 75 33087ft 222kts
10-Nov-19 11:37 34.542443 -119.342939 76 33076ft 235kts
10-Nov-19 11:38 34.548360 -119.262969 76 33074ft 244kts
10-Nov-19 11:39 34.554476 -119.180107 77 33074ft 250kts
10-Nov-19 11:40 34.560644 -119.095634 77 33207ft 250kts
10-Nov-19 11:41 34.566756 -119.011358 77 33229ft 254kts
10-Nov-19 11:42 34.572908 -118.925808 77 33228ft 257kts
10-Nov-19 11:44 34.579007 -118.839601 77 33234ft 254kts
10-Nov-19 11:45 34.585059 -118.753966 78 33228ft 257kts
10-Nov-19 11:46 34.591063 -118.667595 78 33228ft 259kts
10-Nov-19 11:47 34.597060 -118.580559 78 33227ft 259kts
10-Nov-19 11:48 34.602997 -118.493533 78 33226ft 260kts
10-Nov-19 11:49 34.608929 -118.405918 78 33159ft 262kts
10-Nov-19 11:50 34.614709 -118.319086 79 33155ft 262kts
10-Nov-19 11:51 34.620510 -118.231275 79 33155ft 262kts
10-Nov-19 11:52 34.626261 -118.143345 79 33154ft 261kts
10-Nov-19 11:53 34.633576 -118.055812 70 33157ft 257kts
10-Nov-19 11:54 34.652491 -117.972467 69 33154ft 256kts
10-Nov-19 11:55 34.671400 -117.889171 70 33151ft 257kts
10-Nov-19 11:56 34.690425 -117.805658 69 33136ft 258kts
10-Nov-19 11:57 34.709481 -117.721706 70 33133ft 258kts
10-Nov-19 11:58 34.728514 -117.637598 70 33135ft 258kts
10-Nov-19 11:59 34.747468 -117.553508 70 33134ft 259kts
10-Nov-19 11:59 34.763238 -117.483349 70 33132ft 260kts
10-Nov-19 12:00 34.782165 -117.398811 70 33134ft 260kts
10-Nov-19 12:02 34.804280 -117.299657 71 33135ft 261kts
10-Nov-19 12:03 34.823321 -117.214021 71 33135ft 262kts
10-Nov-19 12:03 34.839138 -117.142626 71 32971ft 270kts
10-Nov-19 12:05 34.864171 -117.029313 72 30812ft 325kts
10-Nov-19 12:06 34.888195 -116.919842 73 28626ft 344kts
10-Nov-19 12:06 34.908799 -116.825530 73 26795ft 350kts
10-Nov-19 12:07 34.933691 -116.711115 73 24587ft 351kts
10-Nov-19 12:08 34.957470 -116.601437 72 23934ft 319kts
10-Nov-19 12:09 35.010407 -116.518785 45 22936ft 310kts
10-Nov-19 12:10 35.071132 -116.442822 45 21930ft 315kts
10-Nov-19 12:11 35.132266 -116.366436 45 20926ft 316kts
10-Nov-19 12:12 35.193443 -116.289815 45 19936ft 316kts
10-Nov-19 12:13 35.253624 -116.214317 45 18945ft 305kts
10-Nov-19 12:14 35.312514 -116.140231 45 17804ft 304kts
10-Nov-19 12:15 35.371422 -116.066013 45 16589ft 304kts
10-Nov-19 12:16 35.430495 -115.991380 45 15388ft 299kts
10-Nov-19 12:17 35.487006 -115.919809 46 14474ft 287kts
10-Nov-19 12:18 35.541983 -115.850043 45 13675ft 287kts
10-Nov-19 12:19 35.599374 -115.777054 46 13050ft 301kts
10-Nov-19 12:20 35.656040 -115.704824 46 13042ft 286kts
10-Nov-19 12:21 35.711275 -115.634279 46 13045ft 286kts
10-Nov-19 12:22 35.770562 -115.570518 27 13048ft 284kts
10-Nov-19 12:23 35.842003 -115.532281 10 13032ft 280kts
10-Nov-19 12:24 35.919906 -115.544487 351 12576ft 291kts
10-Nov-19 12:25 35.997943 -115.559618 353 11468ft 281kts
10-Nov-19 12:26 36.045415 -115.500020 70 10383ft 252kts
10-Nov-19 12:27 36.066087 -115.423481 62 9993ft 216kts
10-Nov-19 12:28 36.076909 -115.355374 90 9999ft 203kts
10-Nov-19 12:29 36.074731 -115.285095 92 10004ft 208kts
10-Nov-19 12:30 36.072642 -115.212657 91 10005ft 217kts
10-Nov-19 12:31 36.097233 -115.153261 356 9101ft 233kts
10-Nov-19 12:32 36.155175 -115.173456 313 8075ft 213kts
10-Nov-19 12:33 36.191168 -115.224022 311 6478ft 177kts
10-Nov-19 12:34 36.221012 -115.266266 311 5999ft 141kts
10-Nov-19 12:35 36.248662 -115.267536 81 5168ft 158kts
10-Nov-19 12:36 36.228150 -115.219124 134 3495ft 173kts
10-Nov-19 12:37 36.204511 -115.190291 291 2168ft 5kts

Navigation Log

Ident Type
Flight plan parsing failed, navigation log unavailable